sensor_id;sensor_type;location;lat;lon;timestamp;P1;durP1;ratioP1;P2;durP2;ratioP2
49876;SDS011;35771;48.978;9.294;2022-11-20T00:00:47;9.85;;;5.35;;
49876;SDS011;35771;48.978;9.294;2022-11-20T00:03:13;10.13;;;5.88;;
49876;SDS011;35771;48.978;9.294;2022-11-20T00:05:40;8.45;;;5.75;;
49876;SDS011;35771;48.978;9.294;2022-11-20T00:08:07;10.02;;;5.50;;
49876;SDS011;35771;48.978;9.294;2022-11-20T00:10:35;8.93;;;5.35;;
49876;SDS011;35771;48.978;9.294;2022-11-20T00:13:02;14.00;;;6.57;;
49876;SDS011;35771;48.978;9.294;2022-11-20T00:15:30;9.52;;;5.38;;
49876;SDS011;35771;48.978;9.294;2022-11-20T00:17:57;8.57;;;6.03;;
49876;SDS011;35771;48.978;9.294;2022-11-20T00:20:24;15.02;;;6.53;;
49876;SDS011;35771;48.978;9.294;2022-11-20T00:22:50;11.95;;;6.03;;
49876;SDS011;35771;48.978;9.294;2022-11-20T00:25:17;11.90;;;6.57;;
49876;SDS011;35771;48.978;9.294;2022-11-20T00:27:44;9.15;;;6.13;;
49876;SDS011;35771;48.978;9.294;2022-11-20T00:30:11;10.20;;;6.13;;
49876;SDS011;35771;48.978;9.294;2022-11-20T00:32:39;17.73;;;6.47;;
49876;SDS011;35771;48.978;9.294;2022-11-20T00:35:06;9.68;;;5.72;;
49876;SDS011;35771;48.978;9.294;2022-11-20T00:37:32;13.98;;;6.50;;
49876;SDS011;35771;48.978;9.294;2022-11-20T00:39:59;18.17;;;7.40;;
49876;SDS011;35771;48.978;9.294;2022-11-20T00:42:25;14.40;;;6.40;;
49876;SDS011;35771;48.978;9.294;2022-11-20T00:44:52;15.43;;;6.65;;
49876;SDS011;35771;48.978;9.294;2022-11-20T00:47:19;16.17;;;6.35;;
49876;SDS011;35771;48.978;9.294;2022-11-20T00:49:47;15.35;;;7.50;;
49876;SDS011;35771;48.978;9.294;2022-11-20T00:52:13;18.30;;;7.30;;
49876;SDS011;35771;48.978;9.294;2022-11-20T00:54:40;13.45;;;6.90;;
49876;SDS011;35771;48.978;9.294;2022-11-20T00:57:06;18.55;;;6.88;;
49876;SDS011;35771;48.978;9.294;2022-11-20T00:59:33;18.45;;;7.75;;
49876;SDS011;35771;48.978;9.294;2022-11-20T01:01:59;16.27;;;7.78;;
49876;SDS011;35771;48.978;9.294;2022-11-20T01:04:26;19.48;;;7.57;;
49876;SDS011;35771;48.978;9.294;2022-11-20T01:06:54;15.98;;;7.10;;
49876;SDS011;35771;48.978;9.294;2022-11-20T01:09:20;13.65;;;7.70;;
49876;SDS011;35771;48.978;9.294;2022-11-20T01:11:47;15.75;;;7.75;;
49876;SDS011;35771;48.978;9.294;2022-11-20T01:14:18;18.30;;;7.75;;
49876;SDS011;35771;48.978;9.294;2022-11-20T01:16:46;15.50;;;7.63;;
49876;SDS011;35771;48.978;9.294;2022-11-20T01:19:15;20.52;;;8.18;;
49876;SDS011;35771;48.978;9.294;2022-11-20T01:21:43;20.13;;;8.48;;
49876;SDS011;35771;48.978;9.294;2022-11-20T01:24:13;17.15;;;8.27;;
49876;SDS011;35771;48.978;9.294;2022-11-20T01:26:42;21.85;;;9.38;;
49876;SDS011;35771;48.978;9.294;2022-11-20T01:29:10;18.80;;;9.27;;
49876;SDS011;35771;48.978;9.294;2022-11-20T01:31:40;16.17;;;8.13;;
49876;SDS011;35771;48.978;9.294;2022-11-20T01:34:10;22.88;;;9.30;;
49876;SDS011;35771;48.978;9.294;2022-11-20T01:36:38;18.77;;;8.50;;
49876;SDS011;35771;48.978;9.294;2022-11-20T01:39:06;17.85;;;9.40;;
49876;SDS011;35771;48.978;9.294;2022-11-20T01:41:37;21.90;;;9.32;;
49876;SDS011;35771;48.978;9.294;2022-11-20T01:44:22;20.05;;;8.88;;
49876;SDS011;35771;48.978;9.294;2022-11-20T01:47:04;19.15;;;9.68;;
49876;SDS011;35771;48.978;9.294;2022-11-20T01:49:36;20.15;;;8.57;;
49876;SDS011;35771;48.978;9.294;2022-11-20T01:52:07;19.65;;;8.45;;
49876;SDS011;35771;48.978;9.294;2022-11-20T01:54:45;16.90;;;8.15;;
49876;SDS011;35771;48.978;9.294;2022-11-20T01:57:15;20.90;;;10.10;;
49876;SDS011;35771;48.978;9.294;2022-11-20T01:59:45;19.50;;;9.52;;
49876;SDS011;35771;48.978;9.294;2022-11-20T02:02:17;20.90;;;9.60;;
49876;SDS011;35771;48.978;9.294;2022-11-20T02:04:44;18.27;;;8.82;;
49876;SDS011;35771;48.978;9.294;2022-11-20T02:07:11;20.20;;;9.32;;
49876;SDS011;35771;48.978;9.294;2022-11-20T02:09:38;22.75;;;9.40;;
49876;SDS011;35771;48.978;9.294;2022-11-20T02:12:04;21.73;;;9.95;;
49876;SDS011;35771;48.978;9.294;2022-11-20T02:14:53;20.50;;;9.23;;
49876;SDS011;35771;48.978;9.294;2022-11-20T02:17:18;20.38;;;8.90;;
49876;SDS011;35771;48.978;9.294;2022-11-20T02:19:45;22.30;;;10.02;;
49876;SDS011;35771;48.978;9.294;2022-11-20T02:22:13;23.00;;;10.32;;
49876;SDS011;35771;48.978;9.294;2022-11-20T02:24:45;22.77;;;10.75;;
49876;SDS011;35771;48.978;9.294;2022-11-20T02:27:14;21.15;;;10.40;;
49876;SDS011;35771;48.978;9.294;2022-11-20T02:29:44;20.95;;;8.73;;
49876;SDS011;35771;48.978;9.294;2022-11-20T02:32:17;21.55;;;9.98;;
49876;SDS011;35771;48.978;9.294;2022-11-20T02:34:44;29.55;;;11.05;;
49876;SDS011;35771;48.978;9.294;2022-11-20T02:37:11;21.52;;;10.50;;
49876;SDS011;35771;48.978;9.294;2022-11-20T02:39:40;23.63;;;10.30;;
49876;SDS011;35771;48.978;9.294;2022-11-20T02:42:09;23.42;;;9.77;;
49876;SDS011;35771;48.978;9.294;2022-11-20T02:44:36;21.92;;;9.68;;
49876;SDS011;35771;48.978;9.294;2022-11-20T02:47:03;20.33;;;9.50;;
49876;SDS011;35771;48.978;9.294;2022-11-20T02:49:29;22.77;;;10.75;;
49876;SDS011;35771;48.978;9.294;2022-11-20T02:51:56;19.70;;;9.63;;
49876;SDS011;35771;48.978;9.294;2022-11-20T02:54:22;19.80;;;9.68;;
49876;SDS011;35771;48.978;9.294;2022-11-20T02:56:49;14.32;;;7.93;;
49876;SDS011;35771;48.978;9.294;2022-11-20T02:59:17;19.15;;;9.45;;
49876;SDS011;35771;48.978;9.294;2022-11-20T03:01:44;17.65;;;9.07;;
49876;SDS011;35771;48.978;9.294;2022-11-20T03:04:11;18.40;;;9.07;;
49876;SDS011;35771;48.978;9.294;2022-11-20T03:06:37;18.77;;;9.52;;
49876;SDS011;35771;48.978;9.294;2022-11-20T03:09:04;16.63;;;8.73;;
49876;SDS011;35771;48.978;9.294;2022-11-20T03:11:31;16.15;;;8.25;;
49876;SDS011;35771;48.978;9.294;2022-11-20T03:13:57;17.10;;;8.68;;
49876;SDS011;35771;48.978;9.294;2022-11-20T03:16:28;17.42;;;9.23;;
49876;SDS011;35771;48.978;9.294;2022-11-20T03:18:56;16.73;;;8.77;;
49876;SDS011;35771;48.978;9.294;2022-11-20T03:21:23;15.73;;;8.05;;
49876;SDS011;35771;48.978;9.294;2022-11-20T03:23:50;17.10;;;8.13;;
49876;SDS011;35771;48.978;9.294;2022-11-20T03:26:17;16.17;;;7.97;;
49876;SDS011;35771;48.978;9.294;2022-11-20T03:28:47;18.45;;;8.45;;
49876;SDS011;35771;48.978;9.294;2022-11-20T03:31:16;18.10;;;8.93;;
49876;SDS011;35771;48.978;9.294;2022-11-20T03:33:46;19.40;;;8.75;;
49876;SDS011;35771;48.978;9.294;2022-11-20T03:36:14;14.73;;;8.18;;
49876;SDS011;35771;48.978;9.294;2022-11-20T03:38:41;13.93;;;7.72;;
49876;SDS011;35771;48.978;9.294;2022-11-20T03:41:09;14.15;;;7.97;;
49876;SDS011;35771;48.978;9.294;2022-11-20T03:43:37;15.85;;;7.70;;
49876;SDS011;35771;48.978;9.294;2022-11-20T03:46:04;13.32;;;6.82;;
49876;SDS011;35771;48.978;9.294;2022-11-20T03:48:32;10.10;;;5.88;;
49876;SDS011;35771;48.978;9.294;2022-11-20T03:51:10;10.65;;;6.50;;
49876;SDS011;35771;48.978;9.294;2022-11-20T03:53:37;14.05;;;7.00;;
49876;SDS011;35771;48.978;9.294;2022-11-20T03:56:04;11.43;;;5.72;;
49876;SDS011;35771;48.978;9.294;2022-11-20T03:58:32;11.38;;;6.10;;
49876;SDS011;35771;48.978;9.294;2022-11-20T04:01:03;8.77;;;4.85;;
49876;SDS011;35771;48.978;9.294;2022-11-20T04:03:30;6.40;;;4.18;;
49876;SDS011;35771;48.978;9.294;2022-11-20T04:06:00;6.78;;;3.58;;
49876;SDS011;35771;48.978;9.294;2022-11-20T04:08:30;7.90;;;4.40;;
49876;SDS011;35771;48.978;9.294;2022-11-20T04:10:56;5.93;;;3.88;;
49876;SDS011;35771;48.978;9.294;2022-11-20T04:13:33;9.38;;;5.10;;
49876;SDS011;35771;48.978;9.294;2022-11-20T04:16:00;6.57;;;4.07;;
49876;SDS011;35771;48.978;9.294;2022-11-20T04:18:26;5.75;;;3.63;;
49876;SDS011;35771;48.978;9.294;2022-11-20T04:20:53;6.30;;;3.47;;
49876;SDS011;35771;48.978;9.294;2022-11-20T04:23:19;4.93;;;3.53;;
49876;SDS011;35771;48.978;9.294;2022-11-20T04:25:47;5.00;;;3.42;;
49876;SDS011;35771;48.978;9.294;2022-11-20T04:28:14;5.70;;;3.35;;
49876;SDS011;35771;48.978;9.294;2022-11-20T04:30:40;4.80;;;3.47;;
49876;SDS011;35771;48.978;9.294;2022-11-20T04:33:07;10.32;;;3.58;;
49876;SDS011;35771;48.978;9.294;2022-11-20T04:35:34;4.97;;;3.35;;
49876;SDS011;35771;48.978;9.294;2022-11-20T04:38:00;5.00;;;3.30;;
49876;SDS011;35771;48.978;9.294;2022-11-20T04:40:27;5.20;;;3.42;;
49876;SDS011;35771;48.978;9.294;2022-11-20T04:42:56;4.28;;;3.35;;
49876;SDS011;35771;48.978;9.294;2022-11-20T04:45:23;6.10;;;3.13;;
49876;SDS011;35771;48.978;9.294;2022-11-20T04:47:50;7.50;;;3.38;;
49876;SDS011;35771;48.978;9.294;2022-11-20T04:50:16;4.10;;;2.65;;
49876;SDS011;35771;48.978;9.294;2022-11-20T04:52:43;4.20;;;2.78;;
49876;SDS011;35771;48.978;9.294;2022-11-20T04:55:09;4.30;;;2.90;;
49876;SDS011;35771;48.978;9.294;2022-11-20T04:57:36;6.93;;;3.10;;
49876;SDS011;35771;48.978;9.294;2022-11-20T05:00:04;4.93;;;2.58;;
49876;SDS011;35771;48.978;9.294;2022-11-20T05:02:32;6.30;;;2.70;;
49876;SDS011;35771;48.978;9.294;2022-11-20T05:04:58;5.93;;;2.85;;
49876;SDS011;35771;48.978;9.294;2022-11-20T05:07:25;5.60;;;2.70;;
49876;SDS011;35771;48.978;9.294;2022-11-20T05:09:51;5.28;;;3.13;;
49876;SDS011;35771;48.978;9.294;2022-11-20T05:12:18;4.28;;;3.25;;
49876;SDS011;35771;48.978;9.294;2022-11-20T05:14:44;6.30;;;3.05;;
49876;SDS011;35771;48.978;9.294;2022-11-20T05:17:12;5.05;;;3.35;;
49876;SDS011;35771;48.978;9.294;2022-11-20T05:19:39;10.13;;;3.42;;
49876;SDS011;35771;48.978;9.294;2022-11-20T05:22:05;4.03;;;2.78;;
49876;SDS011;35771;48.978;9.294;2022-11-20T05:24:32;5.97;;;3.25;;
49876;SDS011;35771;48.978;9.294;2022-11-20T05:26:59;4.43;;;3.22;;
49876;SDS011;35771;48.978;9.294;2022-11-20T05:29:25;3.78;;;2.83;;
49876;SDS011;35771;48.978;9.294;2022-11-20T05:31:52;4.25;;;3.25;;
49876;SDS011;35771;48.978;9.294;2022-11-20T05:34:20;4.22;;;3.08;;
49876;SDS011;35771;48.978;9.294;2022-11-20T05:36:46;5.35;;;2.95;;
49876;SDS011;35771;48.978;9.294;2022-11-20T05:39:13;4.00;;;2.75;;
49876;SDS011;35771;48.978;9.294;2022-11-20T05:41:39;3.90;;;3.08;;
49876;SDS011;35771;48.978;9.294;2022-11-20T05:44:06;5.28;;;2.90;;
49876;SDS011;35771;48.978;9.294;2022-11-20T05:46:32;6.88;;;2.67;;
49876;SDS011;35771;48.978;9.294;2022-11-20T05:48:59;4.38;;;2.75;;
49876;SDS011;35771;48.978;9.294;2022-11-20T05:51:27;4.05;;;2.90;;
49876;SDS011;35771;48.978;9.294;2022-11-20T05:53:55;10.55;;;4.05;;
49876;SDS011;35771;48.978;9.294;2022-11-20T05:56:22;6.45;;;2.63;;
49876;SDS011;35771;48.978;9.294;2022-11-20T05:58:49;3.72;;;2.60;;
49876;SDS011;35771;48.978;9.294;2022-11-20T06:01:16;4.32;;;2.80;;
49876;SDS011;35771;48.978;9.294;2022-11-20T06:03:44;4.55;;;2.33;;
49876;SDS011;35771;48.978;9.294;2022-11-20T06:06:12;3.40;;;2.53;;
49876;SDS011;35771;48.978;9.294;2022-11-20T06:08:41;3.78;;;2.33;;
49876;SDS011;35771;48.978;9.294;2022-11-20T06:11:08;9.20;;;2.58;;
49876;SDS011;35771;48.978;9.294;2022-11-20T06:13:36;4.65;;;2.47;;
49876;SDS011;35771;48.978;9.294;2022-11-20T06:16:03;4.57;;;2.92;;
49876;SDS011;35771;48.978;9.294;2022-11-20T06:18:30;7.25;;;3.60;;
49876;SDS011;35771;48.978;9.294;2022-11-20T06:21:00;5.32;;;2.50;;
49876;SDS011;35771;48.978;9.294;2022-11-20T06:23:29;3.40;;;2.47;;
49876;SDS011;35771;48.978;9.294;2022-11-20T06:25:57;5.90;;;3.00;;
49876;SDS011;35771;48.978;9.294;2022-11-20T06:28:26;5.78;;;3.10;;
49876;SDS011;35771;48.978;9.294;2022-11-20T06:30:53;4.00;;;2.92;;
49876;SDS011;35771;48.978;9.294;2022-11-20T06:33:19;5.72;;;2.53;;
49876;SDS011;35771;48.978;9.294;2022-11-20T06:35:48;4.50;;;3.03;;
49876;SDS011;35771;48.978;9.294;2022-11-20T06:38:15;5.75;;;2.92;;
49876;SDS011;35771;48.978;9.294;2022-11-20T06:40:43;5.00;;;2.67;;
49876;SDS011;35771;48.978;9.294;2022-11-20T06:43:11;7.97;;;2.85;;
49876;SDS011;35771;48.978;9.294;2022-11-20T06:45:37;3.45;;;2.50;;
49876;SDS011;35771;48.978;9.294;2022-11-20T06:48:05;4.35;;;2.53;;
49876;SDS011;35771;48.978;9.294;2022-11-20T06:50:32;3.88;;;2.70;;
49876;SDS011;35771;48.978;9.294;2022-11-20T06:53:00;3.85;;;2.63;;
49876;SDS011;35771;48.978;9.294;2022-11-20T06:55:28;7.07;;;2.95;;
49876;SDS011;35771;48.978;9.294;2022-11-20T06:57:55;3.60;;;2.35;;
49876;SDS011;35771;48.978;9.294;2022-11-20T07:00:23;2.95;;;2.15;;
49876;SDS011;35771;48.978;9.294;2022-11-20T07:02:50;3.75;;;2.83;;
49876;SDS011;35771;48.978;9.294;2022-11-20T07:05:16;4.13;;;2.15;;
49876;SDS011;35771;48.978;9.294;2022-11-20T07:07:43;4.25;;;2.60;;
49876;SDS011;35771;48.978;9.294;2022-11-20T07:10:10;8.68;;;2.58;;
49876;SDS011;35771;48.978;9.294;2022-11-20T07:12:37;4.47;;;2.40;;
49876;SDS011;35771;48.978;9.294;2022-11-20T07:15:04;2.97;;;2.20;;
49876;SDS011;35771;48.978;9.294;2022-11-20T07:17:33;3.20;;;2.28;;
49876;SDS011;35771;48.978;9.294;2022-11-20T07:19:59;3.33;;;2.80;;
49876;SDS011;35771;48.978;9.294;2022-11-20T07:22:26;6.25;;;2.80;;
49876;SDS011;35771;48.978;9.294;2022-11-20T07:24:52;4.95;;;2.22;;
49876;SDS011;35771;48.978;9.294;2022-11-20T07:27:19;5.38;;;3.05;;
49876;SDS011;35771;48.978;9.294;2022-11-20T07:29:46;4.40;;;2.72;;
49876;SDS011;35771;48.978;9.294;2022-11-20T07:32:12;5.00;;;2.97;;
49876;SDS011;35771;48.978;9.294;2022-11-20T07:34:40;5.57;;;3.15;;
49876;SDS011;35771;48.978;9.294;2022-11-20T07:37:07;5.30;;;2.92;;
49876;SDS011;35771;48.978;9.294;2022-11-20T07:39:33;3.00;;;2.45;;
49876;SDS011;35771;48.978;9.294;2022-11-20T07:42:00;5.63;;;3.00;;
49876;SDS011;35771;48.978;9.294;2022-11-20T07:44:26;5.65;;;3.75;;
49876;SDS011;35771;48.978;9.294;2022-11-20T07:46:53;6.18;;;3.40;;
49876;SDS011;35771;48.978;9.294;2022-11-20T07:49:22;3.55;;;2.95;;
49876;SDS011;35771;48.978;9.294;2022-11-20T07:51:51;6.07;;;3.55;;
49876;SDS011;35771;48.978;9.294;2022-11-20T07:54:18;6.43;;;3.17;;
49876;SDS011;35771;48.978;9.294;2022-11-20T07:56:45;4.07;;;3.25;;
49876;SDS011;35771;48.978;9.294;2022-11-20T07:59:12;6.15;;;3.10;;
49876;SDS011;35771;48.978;9.294;2022-11-20T08:01:38;6.78;;;3.25;;
49876;SDS011;35771;48.978;9.294;2022-11-20T08:04:05;3.63;;;2.95;;
49876;SDS011;35771;48.978;9.294;2022-11-20T08:06:32;4.35;;;3.05;;
49876;SDS011;35771;48.978;9.294;2022-11-20T08:09:00;3.20;;;2.40;;
49876;SDS011;35771;48.978;9.294;2022-11-20T08:11:27;5.95;;;2.72;;
49876;SDS011;35771;48.978;9.294;2022-11-20T08:14:11;6.70;;;3.70;;
49876;SDS011;35771;48.978;9.294;2022-11-20T08:16:38;4.47;;;2.90;;
49876;SDS011;35771;48.978;9.294;2022-11-20T08:19:07;4.72;;;2.35;;
49876;SDS011;35771;48.978;9.294;2022-11-20T08:21:34;4.05;;;2.65;;
49876;SDS011;35771;48.978;9.294;2022-11-20T08:24:28;4.30;;;3.10;;
49876;SDS011;35771;48.978;9.294;2022-11-20T08:26:56;3.42;;;2.60;;
49876;SDS011;35771;48.978;9.294;2022-11-20T08:29:24;4.63;;;2.80;;
49876;SDS011;35771;48.978;9.294;2022-11-20T08:31:50;7.18;;;3.17;;
49876;SDS011;35771;48.978;9.294;2022-11-20T08:34:17;3.67;;;2.67;;
49876;SDS011;35771;48.978;9.294;2022-11-20T08:36:46;4.35;;;2.72;;
49876;SDS011;35771;48.978;9.294;2022-11-20T08:39:13;3.60;;;2.90;;
49876;SDS011;35771;48.978;9.294;2022-11-20T08:41:41;4.32;;;3.05;;
49876;SDS011;35771;48.978;9.294;2022-11-20T08:44:08;4.07;;;2.65;;
49876;SDS011;35771;48.978;9.294;2022-11-20T08:46:35;5.18;;;3.05;;
49876;SDS011;35771;48.978;9.294;2022-11-20T08:49:06;3.92;;;2.53;;
49876;SDS011;35771;48.978;9.294;2022-11-20T08:51:33;6.57;;;3.22;;
49876;SDS011;35771;48.978;9.294;2022-11-20T08:54:00;4.60;;;3.42;;
49876;SDS011;35771;48.978;9.294;2022-11-20T08:56:27;6.55;;;2.75;;
49876;SDS011;35771;48.978;9.294;2022-11-20T08:58:55;3.25;;;2.50;;
49876;SDS011;35771;48.978;9.294;2022-11-20T09:01:22;6.47;;;3.42;;
49876;SDS011;35771;48.978;9.294;2022-11-20T09:03:49;5.53;;;3.30;;
49876;SDS011;35771;48.978;9.294;2022-11-20T09:06:16;5.10;;;3.13;;
49876;SDS011;35771;48.978;9.294;2022-11-20T09:08:43;7.18;;;3.88;;
49876;SDS011;35771;48.978;9.294;2022-11-20T09:11:10;6.88;;;3.45;;
49876;SDS011;35771;48.978;9.294;2022-11-20T09:13:37;6.07;;;3.22;;
49876;SDS011;35771;48.978;9.294;2022-11-20T09:16:05;4.65;;;3.67;;
49876;SDS011;35771;48.978;9.294;2022-11-20T09:18:34;5.25;;;2.78;;
49876;SDS011;35771;48.978;9.294;2022-11-20T09:21:03;6.22;;;3.55;;
49876;SDS011;35771;48.978;9.294;2022-11-20T09:23:32;6.47;;;3.55;;
49876;SDS011;35771;48.978;9.294;2022-11-20T09:26:01;8.05;;;3.13;;
49876;SDS011;35771;48.978;9.294;2022-11-20T09:28:29;4.25;;;2.88;;
49876;SDS011;35771;48.978;9.294;2022-11-20T09:30:55;4.18;;;3.00;;
49876;SDS011;35771;48.978;9.294;2022-11-20T09:33:23;6.15;;;4.20;;
49876;SDS011;35771;48.978;9.294;2022-11-20T09:35:52;6.22;;;4.10;;
49876;SDS011;35771;48.978;9.294;2022-11-20T09:38:19;4.93;;;3.67;;
49876;SDS011;35771;48.978;9.294;2022-11-20T09:40:48;9.23;;;4.07;;
49876;SDS011;35771;48.978;9.294;2022-11-20T09:43:23;5.85;;;3.35;;
49876;SDS011;35771;48.978;9.294;2022-11-20T09:46:01;6.93;;;4.35;;
49876;SDS011;35771;48.978;9.294;2022-11-20T09:48:41;12.57;;;3.83;;
49876;SDS011;35771;48.978;9.294;2022-11-20T09:51:19;6.07;;;3.80;;
49876;SDS011;35771;48.978;9.294;2022-11-20T09:53:56;8.13;;;4.10;;
49876;SDS011;35771;48.978;9.294;2022-11-20T09:56:33;5.43;;;2.88;;
49876;SDS011;35771;48.978;9.294;2022-11-20T09:59:04;4.05;;;2.58;;
49876;SDS011;35771;48.978;9.294;2022-11-20T10:01:33;6.55;;;3.65;;
49876;SDS011;35771;48.978;9.294;2022-11-20T10:04:05;5.70;;;3.35;;
49876;SDS011;35771;48.978;9.294;2022-11-20T10:06:37;5.72;;;4.30;;
49876;SDS011;35771;48.978;9.294;2022-11-20T10:09:14;5.32;;;4.38;;
49876;SDS011;35771;48.978;9.294;2022-11-20T10:11:48;9.48;;;5.10;;
49876;SDS011;35771;48.978;9.294;2022-11-20T10:14:26;7.45;;;4.22;;
49876;SDS011;35771;48.978;9.294;2022-11-20T10:17:03;3.33;;;2.28;;
49876;SDS011;35771;48.978;9.294;2022-11-20T10:19:47;3.15;;;2.45;;
49876;SDS011;35771;48.978;9.294;2022-11-20T10:22:33;10.27;;;3.47;;
49876;SDS011;35771;48.978;9.294;2022-11-20T10:25:12;3.53;;;2.40;;
49876;SDS011;35771;48.978;9.294;2022-11-20T10:30:24;2.97;;;2.20;;
49876;SDS011;35771;48.978;9.294;2022-11-20T10:32:52;6.47;;;2.65;;
49876;SDS011;35771;48.978;9.294;2022-11-20T10:35:26;2.70;;;2.17;;
49876;SDS011;35771;48.978;9.294;2022-11-20T10:37:59;3.08;;;2.13;;
49876;SDS011;35771;48.978;9.294;2022-11-20T10:40:30;4.35;;;2.08;;
49876;SDS011;35771;48.978;9.294;2022-11-20T10:43:01;3.50;;;2.65;;
49876;SDS011;35771;48.978;9.294;2022-11-20T10:45:36;3.67;;;2.50;;
49876;SDS011;35771;48.978;9.294;2022-11-20T10:48:15;5.75;;;2.63;;
49876;SDS011;35771;48.978;9.294;2022-11-20T10:53:46;4.88;;;2.63;;
49876;SDS011;35771;48.978;9.294;2022-11-20T10:56:22;3.22;;;2.33;;
49876;SDS011;35771;48.978;9.294;2022-11-20T10:59:03;2.67;;;1.77;;
49876;SDS011;35771;48.978;9.294;2022-11-20T11:01:40;5.00;;;2.53;;
49876;SDS011;35771;48.978;9.294;2022-11-20T11:04:13;3.45;;;2.08;;
49876;SDS011;35771;48.978;9.294;2022-11-20T11:06:54;2.83;;;1.80;;
49876;SDS011;35771;48.978;9.294;2022-11-20T11:09:30;4.13;;;1.98;;
49876;SDS011;35771;48.978;9.294;2022-11-20T11:12:00;2.38;;;2.17;;
49876;SDS011;35771;48.978;9.294;2022-11-20T11:14:27;2.17;;;1.60;;
49876;SDS011;35771;48.978;9.294;2022-11-20T11:16:55;2.45;;;2.20;;
49876;SDS011;35771;48.978;9.294;2022-11-20T11:19:22;2.83;;;1.87;;
49876;SDS011;35771;48.978;9.294;2022-11-20T11:21:50;2.88;;;2.10;;
49876;SDS011;35771;48.978;9.294;2022-11-20T11:24:22;2.92;;;2.15;;
49876;SDS011;35771;48.978;9.294;2022-11-20T11:29:22;3.47;;;2.42;;
49876;SDS011;35771;48.978;9.294;2022-11-20T11:31:48;3.97;;;2.28;;
49876;SDS011;35771;48.978;9.294;2022-11-20T11:34:16;3.67;;;2.65;;
49876;SDS011;35771;48.978;9.294;2022-11-20T11:36:56;5.78;;;2.60;;
49876;SDS011;35771;48.978;9.294;2022-11-20T11:39:26;6.32;;;3.30;;
49876;SDS011;35771;48.978;9.294;2022-11-20T11:41:54;6.45;;;2.78;;
49876;SDS011;35771;48.978;9.294;2022-11-20T11:44:21;4.70;;;2.70;;
49876;SDS011;35771;48.978;9.294;2022-11-20T11:47:15;3.67;;;2.70;;
49876;SDS011;35771;48.978;9.294;2022-11-20T11:49:48;5.43;;;2.88;;
49876;SDS011;35771;48.978;9.294;2022-11-20T11:52:16;18.77;;;3.50;;
49876;SDS011;35771;48.978;9.294;2022-11-20T11:54:48;5.38;;;2.78;;
49876;SDS011;35771;48.978;9.294;2022-11-20T11:57:20;6.30;;;2.25;;
49876;SDS011;35771;48.978;9.294;2022-11-20T11:59:57;5.32;;;2.67;;
49876;SDS011;35771;48.978;9.294;2022-11-20T12:02:34;7.78;;;2.95;;
49876;SDS011;35771;48.978;9.294;2022-11-20T12:05:08;11.55;;;2.83;;
49876;SDS011;35771;48.978;9.294;2022-11-20T12:07:43;5.50;;;3.00;;
49876;SDS011;35771;48.978;9.294;2022-11-20T12:10:19;3.22;;;2.40;;
49876;SDS011;35771;48.978;9.294;2022-11-20T12:12:48;7.25;;;2.72;;
49876;SDS011;35771;48.978;9.294;2022-11-20T12:15:26;6.05;;;2.63;;
49876;SDS011;35771;48.978;9.294;2022-11-20T12:17:56;5.10;;;2.70;;
49876;SDS011;35771;48.978;9.294;2022-11-20T12:20:41;2.42;;;1.42;;
49876;SDS011;35771;48.978;9.294;2022-11-20T12:23:14;4.30;;;1.60;;
49876;SDS011;35771;48.978;9.294;2022-11-20T12:25:49;6.30;;;1.80;;
49876;SDS011;35771;48.978;9.294;2022-11-20T12:31:27;3.92;;;1.20;;
49876;SDS011;35771;48.978;9.294;2022-11-20T12:34:13;2.83;;;1.42;;
49876;SDS011;35771;48.978;9.294;2022-11-20T12:36:56;9.63;;;1.52;;
49876;SDS011;35771;48.978;9.294;2022-11-20T12:39:34;1.98;;;1.50;;
49876;SDS011;35771;48.978;9.294;2022-11-20T12:42:13;5.30;;;1.30;;
49876;SDS011;35771;48.978;9.294;2022-11-20T12:45:24;10.43;;;2.08;;
49876;SDS011;35771;48.978;9.294;2022-11-20T12:48:30;2.50;;;1.35;;
49876;SDS011;35771;48.978;9.294;2022-11-20T12:51:27;3.20;;;1.48;;
49876;SDS011;35771;48.978;9.294;2022-11-20T12:54:21;3.85;;;1.40;;
49876;SDS011;35771;48.978;9.294;2022-11-20T12:57:18;6.05;;;1.13;;
49876;SDS011;35771;48.978;9.294;2022-11-20T13:00:03;5.10;;;1.08;;
49876;SDS011;35771;48.978;9.294;2022-11-20T13:02:41;8.32;;;3.40;;
49876;SDS011;35771;48.978;9.294;2022-11-20T13:05:30;2.60;;;1.40;;
49876;SDS011;35771;48.978;9.294;2022-11-20T13:08:02;2.88;;;1.35;;
49876;SDS011;35771;48.978;9.294;2022-11-20T13:10:39;3.00;;;1.90;;
49876;SDS011;35771;48.978;9.294;2022-11-20T13:13:14;3.15;;;1.10;;
49876;SDS011;35771;48.978;9.294;2022-11-20T13:15:48;1.30;;;1.20;;
49876;SDS011;35771;48.978;9.294;2022-11-20T13:18:20;4.13;;;1.08;;
49876;SDS011;35771;48.978;9.294;2022-11-20T13:20:47;1.92;;;0.93;;
49876;SDS011;35771;48.978;9.294;2022-11-20T13:23:22;5.72;;;1.08;;
49876;SDS011;35771;48.978;9.294;2022-11-20T13:25:49;4.13;;;1.33;;
49876;SDS011;35771;48.978;9.294;2022-11-20T13:28:29;11.05;;;1.13;;
49876;SDS011;35771;48.978;9.294;2022-11-20T13:30:56;4.38;;;1.50;;
49876;SDS011;35771;48.978;9.294;2022-11-20T13:33:26;2.05;;;0.77;;
49876;SDS011;35771;48.978;9.294;2022-11-20T13:35:57;1.67;;;0.95;;
49876;SDS011;35771;48.978;9.294;2022-11-20T13:38:25;15.40;;;4.23;;
49876;SDS011;35771;48.978;9.294;2022-11-20T13:40:53;9.93;;;1.67;;
49876;SDS011;35771;48.978;9.294;2022-11-20T13:43:22;3.58;;;1.10;;
49876;SDS011;35771;48.978;9.294;2022-11-20T13:46:00;6.75;;;2.15;;
49876;SDS011;35771;48.978;9.294;2022-11-20T13:48:29;3.25;;;1.10;;
49876;SDS011;35771;48.978;9.294;2022-11-20T13:51:03;4.65;;;1.35;;
49876;SDS011;35771;48.978;9.294;2022-11-20T13:56:59;5.70;;;0.93;;
49876;SDS011;35771;48.978;9.294;2022-11-20T13:59:46;2.38;;;1.13;;
49876;SDS011;35771;48.978;9.294;2022-11-20T14:02:23;3.08;;;1.42;;
49876;SDS011;35771;48.978;9.294;2022-11-20T14:04:56;3.15;;;2.08;;
49876;SDS011;35771;48.978;9.294;2022-11-20T14:07:25;1.83;;;1.08;;
49876;SDS011;35771;48.978;9.294;2022-11-20T14:09:58;1.23;;;1.13;;
49876;SDS011;35771;48.978;9.294;2022-11-20T14:12:27;2.53;;;0.93;;
49876;SDS011;35771;48.978;9.294;2022-11-20T14:14:57;3.92;;;0.70;;
49876;SDS011;35771;48.978;9.294;2022-11-20T14:17:24;1.38;;;0.82;;
49876;SDS011;35771;48.978;9.294;2022-11-20T14:19:57;5.78;;;0.90;;
49876;SDS011;35771;48.978;9.294;2022-11-20T14:25:00;1.65;;;0.93;;
49876;SDS011;35771;48.978;9.294;2022-11-20T14:27:32;2.28;;;0.88;;
49876;SDS011;35771;48.978;9.294;2022-11-20T14:30:05;5.07;;;1.00;;
49876;SDS011;35771;48.978;9.294;2022-11-20T14:32:38;3.95;;;1.73;;
49876;SDS011;35771;48.978;9.294;2022-11-20T14:35:06;0.82;;;0.60;;
49876;SDS011;35771;48.978;9.294;2022-11-20T14:37:36;3.33;;;1.08;;
49876;SDS011;35771;48.978;9.294;2022-11-20T14:40:05;3.63;;;1.63;;
49876;SDS011;35771;48.978;9.294;2022-11-20T14:42:52;2.88;;;1.10;;
49876;SDS011;35771;48.978;9.294;2022-11-20T14:45:20;1.92;;;0.95;;
49876;SDS011;35771;48.978;9.294;2022-11-20T14:47:49;1.48;;;1.10;;
49876;SDS011;35771;48.978;9.294;2022-11-20T14:50:21;2.70;;;1.40;;
49876;SDS011;35771;48.978;9.294;2022-11-20T14:52:50;3.80;;;1.13;;
49876;SDS011;35771;48.978;9.294;2022-11-20T14:55:30;2.42;;;0.82;;
49876;SDS011;35771;48.978;9.294;2022-11-20T14:58:00;4.32;;;1.13;;
49876;SDS011;35771;48.978;9.294;2022-11-20T15:00:30;8.98;;;2.80;;
49876;SDS011;35771;48.978;9.294;2022-11-20T15:02:58;2.88;;;1.23;;
49876;SDS011;35771;48.978;9.294;2022-11-20T15:05:25;1.52;;;1.10;;
49876;SDS011;35771;48.978;9.294;2022-11-20T15:08:10;2.42;;;1.35;;
49876;SDS011;35771;48.978;9.294;2022-11-20T15:10:38;3.60;;;1.10;;
49876;SDS011;35771;48.978;9.294;2022-11-20T15:13:11;3.53;;;1.27;;
49876;SDS011;35771;48.978;9.294;2022-11-20T15:18:12;1.35;;;1.15;;
49876;SDS011;35771;48.978;9.294;2022-11-20T15:20:40;6.07;;;1.20;;